createdAt,value
2023-03-10T00:01:33.976Z,100.00
2023-03-10T00:04:03.032Z,100.00
2023-03-10T00:06:35.350Z,100.00
2023-03-10T00:09:02.223Z,100.00
2023-03-10T00:11:29.107Z,100.00
2023-03-10T00:14:03.861Z,100.00
2023-03-10T00:16:38.144Z,100.00
2023-03-10T00:19:14.992Z,100.00
2023-03-10T00:21:42.156Z,100.00
2023-03-10T00:24:14.030Z,100.00
2023-03-10T00:26:40.847Z,100.00
2023-03-10T00:29:07.522Z,100.00
2023-03-10T00:31:34.196Z,100.00
2023-03-10T00:34:00.769Z,100.00
2023-03-10T00:36:36.599Z,100.00
2023-03-10T00:39:03.540Z,100.00
2023-03-10T00:41:31.893Z,100.00
2023-03-10T00:44:03.167Z,100.00
2023-03-10T00:46:30.441Z,100.00
2023-03-10T00:49:00.218Z,100.00
2023-03-10T00:51:31.246Z,100.00
2023-03-10T00:53:59.464Z,100.00
2023-03-10T00:56:29.539Z,100.00
2023-03-10T00:59:02.107Z,100.00
2023-03-10T01:01:33.230Z,100.00
2023-03-10T01:04:02.103Z,100.00
2023-03-10T01:06:32.347Z,100.00
2023-03-10T01:08:59.075Z,100.00
2023-03-10T01:11:32.198Z,100.00
2023-03-10T01:14:00.627Z,100.00
2023-03-10T01:16:31.394Z,100.00
2023-03-10T01:19:00.530Z,100.00
2023-03-10T01:21:32.995Z,100.00
2023-03-10T01:24:00.494Z,100.00
2023-03-10T01:26:30.830Z,100.00
2023-03-10T01:29:00.517Z,100.00
2023-03-10T01:31:30.350Z,100.00
2023-03-10T01:34:00.264Z,100.00
2023-03-10T01:36:37.386Z,99.80
2023-03-10T01:39:03.969Z,99.11
2023-03-10T01:41:30.623Z,99.47
2023-03-10T01:44:02.140Z,97.76
2023-03-10T01:46:47.488Z,98.71
2023-03-10T01:49:40.209Z,98.33
2023-03-10T01:52:13.670Z,97.81
2023-03-10T01:54:49.085Z,97.15
2023-03-10T01:57:18.987Z,96.06
2023-03-10T01:59:49.536Z,96.75
2023-03-10T02:02:33.255Z,95.24
2023-03-10T02:05:01.967Z,95.13
2023-03-10T02:07:38.899Z,95.70
2023-03-10T02:10:07.131Z,95.65
2023-03-10T02:12:33.707Z,94.67
2023-03-10T02:15:00.374Z,94.24
2023-03-10T02:17:29.947Z,94.14
2023-03-10T02:20:14.291Z,94.56
2023-03-10T02:22:42.616Z,94.67
2023-03-10T02:25:29.355Z,94.86
2023-03-10T02:28:00.693Z,93.92
2023-03-10T02:30:31.871Z,93.74
2023-03-10T02:33:01.871Z,93.65
2023-03-10T02:35:28.885Z,93.83
2023-03-10T02:38:03.881Z,93.70
2023-03-10T02:40:34.584Z,93.43
2023-03-10T02:43:15.555Z,94.35
2023-03-10T02:45:45.814Z,94.60
2023-03-10T02:48:14.787Z,94.47
2023-03-10T02:50:46.763Z,94.47
2023-03-10T02:53:16.508Z,94.43
2023-03-10T02:55:43.226Z,93.46
2023-03-10T02:58:11.370Z,95.50
2023-03-10T03:00:39.959Z,94.19
2023-03-10T03:03:09.186Z,93.85
2023-03-10T03:05:36.469Z,93.43
2023-03-10T03:08:03.908Z,92.65
2023-03-10T03:10:30.607Z,92.70
2023-03-10T03:13:00.369Z,92.33
2023-03-10T03:15:28.767Z,93.17
2023-03-10T03:17:59.593Z,92.79
2023-03-10T03:20:29.004Z,92.74
2023-03-10T03:22:59.398Z,91.75
2023-03-10T03:25:29.411Z,91.20
2023-03-10T03:28:00.690Z,91.67
2023-03-10T03:30:29.047Z,91.54
2023-03-10T03:33:01.140Z,91.55
2023-03-10T03:35:33.678Z,91.61
2023-03-10T03:38:01.619Z,91.31
2023-03-10T03:40:31.637Z,90.89
2023-03-10T03:43:01.996Z,90.68
2023-03-10T03:45:31.790Z,92.35
2023-03-10T03:47:59.542Z,91.87
2023-03-10T03:50:29.934Z,91.25
2023-03-10T03:53:02.119Z,90.37
2023-03-10T03:55:29.756Z,90.34
2023-03-10T03:57:58.593Z,91.12
2023-03-10T04:00:32.805Z,89.84
2023-03-10T04:03:04.052Z,89.56
2023-03-10T04:05:31.676Z,88.36
2023-03-10T04:08:00.385Z,88.61
2023-03-10T04:10:28.736Z,88.92
2023-03-10T04:12:57.570Z,88.09
2023-03-10T04:15:29.598Z,88.80
2023-03-10T04:17:59.068Z,89.71
2023-03-10T04:20:32.272Z,88.20
2023-03-10T04:22:58.937Z,87.96
2023-03-10T04:25:30.734Z,87.70
2023-03-10T04:27:59.300Z,87.90
2023-03-10T04:30:28.731Z,88.01
2023-03-10T04:32:59.063Z,87.65
2023-03-10T04:35:30.664Z,88.64
2023-03-10T04:37:58.729Z,87.76
2023-03-10T04:40:31.733Z,88.24
2023-03-10T04:43:01.925Z,87.14
2023-03-10T04:45:29.780Z,87.56
2023-03-10T04:47:58.477Z,88.27
2023-03-10T04:50:29.971Z,87.26
2023-03-10T04:52:58.383Z,87.17
2023-03-10T04:55:28.350Z,86.88
2023-03-10T04:58:01.883Z,87.18
2023-03-10T05:00:28.636Z,87.13
2023-03-10T05:03:01.242Z,87.10
2023-03-10T05:05:35.826Z,87.17
2023-03-10T05:08:07.625Z,87.04
2023-03-10T05:10:34.580Z,86.98
2023-03-10T05:13:03.495Z,86.32
2023-03-10T05:15:33.692Z,86.29
2023-03-10T05:18:00.607Z,86.95
2023-03-10T05:20:30.044Z,87.51
2023-03-10T05:23:00.825Z,87.60
2023-03-10T05:25:30.306Z,86.95
2023-03-10T05:28:00.354Z,88.06
2023-03-10T05:30:28.947Z,87.67
2023-03-10T05:32:59.434Z,86.97
2023-03-10T05:35:31.858Z,86.93
2023-03-10T05:38:00.101Z,88.03
2023-03-10T05:40:30.167Z,87.52
2023-03-10T05:42:58.559Z,87.54
2023-03-10T05:45:34.485Z,87.27
2023-03-10T05:48:04.139Z,87.85
2023-03-10T05:50:30.797Z,88.00
2023-03-10T05:53:00.419Z,88.41
2023-03-10T05:55:29.956Z,89.68
2023-03-10T05:58:00.308Z,89.22
2023-03-10T06:00:28.859Z,89.39
2023-03-10T06:03:00.143Z,90.66
2023-03-10T06:05:32.142Z,91.07
2023-03-10T06:08:00.431Z,91.04
2023-03-10T06:10:30.142Z,91.10
2023-03-10T06:12:59.801Z,90.89
2023-03-10T06:15:32.381Z,91.14
2023-03-10T06:18:00.914Z,90.23
2023-03-10T06:20:29.424Z,90.45
2023-03-10T06:23:04.844Z,90.91
2023-03-10T06:25:31.425Z,90.71
2023-03-10T06:28:01.469Z,90.41
2023-03-10T06:30:31.332Z,90.70
2023-03-10T06:33:01.570Z,89.38
2023-03-10T06:35:31.895Z,89.60
2023-03-10T06:37:58.791Z,89.25
2023-03-10T06:40:29.100Z,89.92
2023-03-10T06:43:01.667Z,89.50
2023-03-10T06:45:31.229Z,90.04
2023-03-10T06:47:59.738Z,88.56
2023-03-10T06:50:34.244Z,88.55
2023-03-10T06:53:01.043Z,87.89
2023-03-10T06:55:31.939Z,87.81
2023-03-10T06:57:58.525Z,87.54
2023-03-10T07:00:30.252Z,87.05
2023-03-10T07:03:00.122Z,87.22
2023-03-10T07:05:28.458Z,87.87
2023-03-10T07:07:59.942Z,86.12
2023-03-10T07:10:31.331Z,87.73
2023-03-10T07:13:02.359Z,86.72
2023-03-10T07:15:29.671Z,86.05
2023-03-10T07:17:59.367Z,87.19
2023-03-10T07:20:29.744Z,87.01
2023-03-10T07:23:02.121Z,87.25
2023-03-10T07:25:28.649Z,87.19
2023-03-10T07:28:01.707Z,86.28
2023-03-10T07:30:31.574Z,84.59
2023-03-10T07:33:01.012Z,84.75
2023-03-10T07:35:29.277Z,84.28
2023-03-10T07:38:02.090Z,82.96
2023-03-10T07:40:29.188Z,83.45
2023-03-10T07:43:00.840Z,84.30
2023-03-10T07:45:32.656Z,84.62
2023-03-10T07:48:02.156Z,84.20
2023-03-10T07:50:29.081Z,83.50
2023-03-10T07:53:01.735Z,83.40
2023-03-10T07:55:37.799Z,84.08
2023-03-10T07:58:07.662Z,83.03
2023-03-10T08:00:35.912Z,82.90
2023-03-10T08:03:02.480Z,81.06
2023-03-10T08:05:34.848Z,81.01
2023-03-10T08:08:01.581Z,80.12
2023-03-10T08:10:31.523Z,79.73
2023-03-10T08:13:03.149Z,79.21
2023-03-10T08:15:30.461Z,78.11
2023-03-10T08:18:01.148Z,77.47
2023-03-10T08:20:29.712Z,76.46
2023-03-10T08:22:59.384Z,75.80
2023-03-10T08:25:28.536Z,74.34
2023-03-10T08:28:01.372Z,74.16
2023-03-10T08:30:32.468Z,73.47
2023-03-10T08:33:02.072Z,72.21
2023-03-10T08:35:30.361Z,74.39
2023-03-10T08:38:05.194Z,73.18
2023-03-10T08:40:34.678Z,72.83
2023-03-10T08:43:01.329Z,71.93
2023-03-10T08:45:30.390Z,70.81
2023-03-10T08:47:59.898Z,70.44
2023-03-10T08:50:31.223Z,69.66
2023-03-10T08:53:00.994Z,70.96
2023-03-10T08:55:29.637Z,71.67
2023-03-10T08:58:02.495Z,71.60
2023-03-10T09:00:37.502Z,70.10
2023-03-10T09:03:04.250Z,71.81
2023-03-10T09:05:32.264Z,72.46
2023-03-10T09:07:58.833Z,71.34
2023-03-10T09:10:31.377Z,70.17
2023-03-10T09:13:13.022Z,71.46
2023-03-10T09:15:41.560Z,70.71
2023-03-10T09:18:11.895Z,72.42
2023-03-10T09:20:45.755Z,70.66
2023-03-10T09:23:15.763Z,69.56
2023-03-10T09:25:45.065Z,70.30
2023-03-10T09:28:17.420Z,69.62
2023-03-10T09:30:45.822Z,70.21
2023-03-10T09:33:16.317Z,68.65
2023-03-10T09:36:05.937Z,69.20
2023-03-10T09:38:34.065Z,66.56
2023-03-10T09:41:08.953Z,66.19
2023-03-10T09:43:39.224Z,67.71
2023-03-10T09:46:15.049Z,66.72
2023-03-10T09:48:50.342Z,64.90
2023-03-10T09:51:30.358Z,65.75
2023-03-10T09:54:11.262Z,65.00
2023-03-10T09:56:38.265Z,64.29
2023-03-10T09:59:08.844Z,62.85
2023-03-10T10:01:35.805Z,61.38
2023-03-10T10:04:15.664Z,62.91
2023-03-10T10:06:46.266Z,63.31
2023-03-10T10:09:31.952Z,64.71
2023-03-10T10:12:11.682Z,64.58
2023-03-10T10:14:56.604Z,65.91
2023-03-10T10:17:53.713Z,65.17
2023-03-10T10:20:34.950Z,64.61
2023-03-10T10:23:20.967Z,64.42
2023-03-10T10:25:50.445Z,64.83
2023-03-10T10:28:28.282Z,66.68
2023-03-10T10:31:14.210Z,66.46
2023-03-10T10:34:03.126Z,66.79
2023-03-10T10:36:32.155Z,64.10
2023-03-10T10:39:00.882Z,63.85
2023-03-10T10:41:34.071Z,59.93
2023-03-10T10:44:14.399Z,59.84
2023-03-10T10:47:00.994Z,61.14
2023-03-10T10:49:30.163Z,60.21
2023-03-10T10:52:01.178Z,58.41
2023-03-10T10:54:37.825Z,58.95
2023-03-10T10:57:18.842Z,56.79
2023-03-10T10:59:45.925Z,57.58
2023-03-10T11:02:32.457Z,56.50
2023-03-10T11:05:15.782Z,56.71
2023-03-10T11:07:42.847Z,58.29
2023-03-10T11:10:15.963Z,58.28
2023-03-10T11:13:07.259Z,59.28
2023-03-10T11:15:39.638Z,58.65
2023-03-10T11:18:14.411Z,57.48
2023-03-10T11:20:51.841Z,57.91
2023-03-10T11:23:29.650Z,58.72
2023-03-10T11:26:10.906Z,60.13
2023-03-10T11:29:00.301Z,57.73
2023-03-10T11:31:41.321Z,60.12
2023-03-10T11:34:43.579Z,61.20
2023-03-10T11:37:20.784Z,59.13
2023-03-10T11:40:05.982Z,59.79
2023-03-10T11:42:39.008Z,58.70
2023-03-10T11:45:31.638Z,59.91
2023-03-10T11:48:07.401Z,58.96
2023-03-10T11:50:42.304Z,60.05
2023-03-10T11:53:16.290Z,61.07
2023-03-10T11:55:44.442Z,62.20
2023-03-10T11:58:29.805Z,63.58
2023-03-10T12:01:00.692Z,64.58
2023-03-10T12:03:42.299Z,63.11
2023-03-10T12:06:14.802Z,64.13
2023-03-10T12:08:42.624Z,65.66
2023-03-10T12:11:16.848Z,66.45
2023-03-10T12:13:47.884Z,65.93
2023-03-10T12:16:19.014Z,65.45
2023-03-10T12:18:46.226Z,66.96
2023-03-10T12:21:21.995Z,66.11
2023-03-10T12:24:44.852Z,65.16
2023-03-10T12:27:11.519Z,66.74
2023-03-10T12:29:43.239Z,66.85
2023-03-10T12:32:41.717Z,67.53
2023-03-10T12:35:59.326Z,68.46
2023-03-10T12:38:41.743Z,75.81
2023-03-10T12:41:32.794Z,74.75
2023-03-10T12:44:01.479Z,76.21
2023-03-10T12:46:40.723Z,74.17
2023-03-10T12:49:46.188Z,74.95
2023-03-10T12:52:30.315Z,71.30
2023-03-10T12:55:17.453Z,68.82
2023-03-10T12:58:02.448Z,69.85
2023-03-10T13:00:38.349Z,72.28
2023-03-10T13:03:16.008Z,70.06
2023-03-10T13:06:06.178Z,70.32
2023-03-10T13:09:02.678Z,70.89
2023-03-10T13:11:36.486Z,67.25
2023-03-10T13:14:10.788Z,68.54
2023-03-10T13:16:39.955Z,68.19
2023-03-10T13:19:07.120Z,67.83
2023-03-10T13:21:36.355Z,67.71
2023-03-10T13:24:22.020Z,68.77
2023-03-10T13:26:48.596Z,68.67
2023-03-10T13:29:19.564Z,67.41
2023-03-10T13:32:00.538Z,66.82
2023-03-10T13:34:36.213Z,66.85
2023-03-10T13:37:04.932Z,68.95
2023-03-10T13:39:31.871Z,69.38
2023-03-10T13:42:02.110Z,69.01
2023-03-10T13:44:34.557Z,67.69
2023-03-10T13:47:04.332Z,66.65
2023-03-10T13:49:33.983Z,66.97
2023-03-10T13:52:03.458Z,67.70
2023-03-10T13:54:32.053Z,69.49
2023-03-10T13:57:04.628Z,70.75
2023-03-10T13:59:34.427Z,70.02
2023-03-10T14:02:01.943Z,70.12
2023-03-10T14:04:43.703Z,68.69
2023-03-10T14:07:11.815Z,69.33
2023-03-10T14:09:38.615Z,68.91
2023-03-10T14:12:05.482Z,69.48
2023-03-10T14:14:34.568Z,68.85
2023-03-10T14:17:02.696Z,66.66
2023-03-10T14:19:46.774Z,66.69
2023-03-10T14:22:28.045Z,65.70
2023-03-10T14:25:11.525Z,66.86
2023-03-10T14:27:42.189Z,66.34
2023-03-10T14:30:31.595Z,65.39
2023-03-10T14:33:01.740Z,66.79
2023-03-10T14:35:30.382Z,67.12
2023-03-10T14:37:58.810Z,65.46
2023-03-10T14:40:30.258Z,66.25
2023-03-10T14:43:17.216Z,66.89
2023-03-10T14:46:13.456Z,66.34
2023-03-10T14:49:14.001Z,64.67
2023-03-10T14:51:59.761Z,62.38
2023-03-10T14:54:38.731Z,61.55
2023-03-10T14:57:29.215Z,65.27
2023-03-10T15:00:04.554Z,63.09
2023-03-10T15:02:47.613Z,64.64
2023-03-10T15:05:20.451Z,66.42
2023-03-10T15:08:10.699Z,66.87
2023-03-10T15:10:49.322Z,66.44
2023-03-10T15:13:17.244Z,66.45
2023-03-10T15:15:45.565Z,67.75
2023-03-10T15:18:15.469Z,64.53
2023-03-10T15:20:42.203Z,63.57
2023-03-10T15:23:09.220Z,62.70
2023-03-10T15:25:36.261Z,62.34
2023-03-10T15:28:03.758Z,61.91
2023-03-10T15:30:32.600Z,65.25
2023-03-10T15:32:59.352Z,65.33
2023-03-10T15:35:30.166Z,66.63
2023-03-10T15:37:58.825Z,67.07
2023-03-10T15:40:32.678Z,66.88
2023-03-10T15:42:59.603Z,68.12
2023-03-10T15:45:30.880Z,68.45
2023-03-10T15:48:00.498Z,67.42
2023-03-10T15:50:30.948Z,67.77
2023-03-10T15:53:01.060Z,68.89
2023-03-10T15:55:32.472Z,67.21
2023-03-10T15:58:02.233Z,66.94
2023-03-10T16:00:31.421Z,69.61
2023-03-10T16:03:00.804Z,67.97
2023-03-10T16:05:32.370Z,68.18
2023-03-10T16:08:01.775Z,69.52
2023-03-10T16:10:31.989Z,69.23
2023-03-10T16:13:00.816Z,70.71
2023-03-10T16:15:31.438Z,68.48
2023-03-10T16:18:03.056Z,71.53
2023-03-10T16:20:29.620Z,69.71
2023-03-10T16:23:02.560Z,70.85
2023-03-10T16:25:32.271Z,70.75
2023-03-10T16:28:01.449Z,69.88
2023-03-10T16:30:30.363Z,66.81
2023-03-10T16:32:59.994Z,68.92
2023-03-10T16:35:30.442Z,68.21
2023-03-10T16:38:02.085Z,70.69
2023-03-10T16:40:44.622Z,71.74
2023-03-10T16:43:11.529Z,71.38
2023-03-10T16:45:39.798Z,73.83
2023-03-10T16:48:06.857Z,72.81
2023-03-10T16:50:33.743Z,72.94
2023-03-10T16:53:03.718Z,73.79
2023-03-10T16:55:30.814Z,74.30
2023-03-10T16:58:05.589Z,74.38
2023-03-10T17:00:36.885Z,73.33
2023-03-10T17:03:06.393Z,75.17
2023-03-10T17:05:35.683Z,73.56
2023-03-10T17:08:03.985Z,74.01
2023-03-10T17:10:31.007Z,73.48
2023-03-10T17:13:02.340Z,74.31
2023-03-10T17:15:29.794Z,73.90
2023-03-10T17:17:59.791Z,74.90
2023-03-10T17:20:32.156Z,74.25
2023-03-10T17:23:05.126Z,74.78
2023-03-10T17:25:35.800Z,73.30
2023-03-10T17:28:02.566Z,73.73
2023-03-10T17:30:29.123Z,73.53
2023-03-10T17:33:01.325Z,75.33
2023-03-10T17:35:34.628Z,76.34
2023-03-10T17:38:01.284Z,76.74
2023-03-10T17:40:30.874Z,76.60
2023-03-10T17:43:08.387Z,77.13
2023-03-10T17:45:41.926Z,77.13
2023-03-10T17:48:08.499Z,77.49
2023-03-10T17:50:35.104Z,77.91
2023-03-10T17:53:01.599Z,77.31
2023-03-10T17:55:30.180Z,78.26
2023-03-10T17:58:00.109Z,77.26
2023-03-10T18:00:29.700Z,77.17
2023-03-10T18:03:00.280Z,76.52
2023-03-10T18:05:29.991Z,75.88
2023-03-10T18:07:59.636Z,76.44
2023-03-10T18:10:29.204Z,77.56
2023-03-10T18:13:03.603Z,76.87
2023-03-10T18:15:32.109Z,77.11
2023-03-10T18:17:59.076Z,77.43
2023-03-10T18:20:31.881Z,77.08
2023-03-10T18:23:01.476Z,77.67
2023-03-10T18:25:34.031Z,79.33
2023-03-10T18:28:00.749Z,78.09
2023-03-10T18:30:31.288Z,78.53
2023-03-10T18:32:59.976Z,78.86
2023-03-10T18:35:32.623Z,79.62
2023-03-10T18:37:59.529Z,79.93
2023-03-10T18:40:28.945Z,79.82
2023-03-10T18:43:01.387Z,80.32
2023-03-10T18:45:30.283Z,80.50
2023-03-10T18:48:04.901Z,80.50
2023-03-10T18:50:31.749Z,81.55
2023-03-10T18:53:01.232Z,81.52
2023-03-10T18:55:35.222Z,81.30
2023-03-10T18:58:08.410Z,81.60
2023-03-10T19:00:36.804Z,81.61
2023-03-10T19:03:03.466Z,81.74
2023-03-10T19:05:30.253Z,82.40
2023-03-10T19:07:59.959Z,83.03
2023-03-10T19:10:32.531Z,82.34
2023-03-10T19:12:59.194Z,83.45
2023-03-10T19:15:28.305Z,82.27
2023-03-10T19:17:59.130Z,82.44
2023-03-10T19:20:37.806Z,82.47
2023-03-10T19:23:04.532Z,82.98
2023-03-10T19:25:31.158Z,82.63
2023-03-10T19:28:00.853Z,82.48
2023-03-10T19:30:29.576Z,82.46
2023-03-10T19:33:06.824Z,82.80
2023-03-10T19:35:33.536Z,84.17
2023-03-10T19:38:00.250Z,86.00
2023-03-10T19:40:33.029Z,87.81
2023-03-10T19:43:02.976Z,89.10
2023-03-10T19:45:31.033Z,89.50
2023-03-10T19:48:02.581Z,90.16
2023-03-10T19:50:31.811Z,90.16
2023-03-10T19:53:08.897Z,90.89
2023-03-10T19:55:37.534Z,91.32
2023-03-10T19:58:07.701Z,91.42
2023-03-10T20:00:34.512Z,91.97
2023-03-10T20:03:05.109Z,91.57
2023-03-10T20:05:41.375Z,92.11
2023-03-10T20:08:08.861Z,90.46
2023-03-10T20:10:35.504Z,88.79
2023-03-10T20:13:02.228Z,87.31
2023-03-10T20:15:28.913Z,88.08
2023-03-10T20:18:01.921Z,88.17
2023-03-10T20:20:30.859Z,87.10
2023-03-10T20:22:59.463Z,85.88
2023-03-10T20:25:29.888Z,86.78
2023-03-10T20:28:02.126Z,86.05
2023-03-10T20:30:29.970Z,87.04
2023-03-10T20:33:02.183Z,87.58
2023-03-10T20:35:31.478Z,87.66
2023-03-10T20:38:01.231Z,87.75
2023-03-10T20:40:29.544Z,87.69
2023-03-10T20:42:58.960Z,88.95
2023-03-10T20:45:31.692Z,87.58
2023-03-10T20:48:01.794Z,87.27
2023-03-10T20:50:35.922Z,88.10
2023-03-10T20:53:03.251Z,88.09
2023-03-10T20:55:31.357Z,88.95
2023-03-10T20:58:01.677Z,88.80
2023-03-10T21:00:30.699Z,88.49
2023-03-10T21:02:59.302Z,88.38
2023-03-10T21:05:30.029Z,89.53
2023-03-10T21:08:02.653Z,89.56
2023-03-10T21:10:29.225Z,90.32
2023-03-10T21:13:01.842Z,91.33
2023-03-10T21:15:30.077Z,91.72
2023-03-10T21:18:09.045Z,90.83
2023-03-10T21:20:38.035Z,91.83
2023-03-10T21:23:06.218Z,91.85
2023-03-10T21:25:32.779Z,91.25
2023-03-10T21:27:59.349Z,92.13
2023-03-10T21:30:32.046Z,92.46
2023-03-10T21:33:00.784Z,92.70
2023-03-10T21:35:32.601Z,92.69
2023-03-10T21:38:00.766Z,93.79
2023-03-10T21:40:30.280Z,93.11
2023-03-10T21:43:02.999Z,93.20
2023-03-10T21:45:29.721Z,94.32
2023-03-10T21:48:02.336Z,93.31
2023-03-10T21:50:28.905Z,92.70
2023-03-10T21:53:03.144Z,93.41
2023-03-10T21:55:36.985Z,92.42
2023-03-10T21:58:05.874Z,91.42
2023-03-10T22:00:33.095Z,90.63
2023-03-10T22:02:59.787Z,90.72
2023-03-10T22:05:29.429Z,91.19
2023-03-10T22:07:59.168Z,91.37
2023-03-10T22:10:31.154Z,92.83
2023-03-10T22:13:00.939Z,92.36
2023-03-10T22:15:32.040Z,90.77
2023-03-10T22:18:01.779Z,88.11
2023-03-10T22:20:31.587Z,89.92
2023-03-10T22:23:01.170Z,90.06
2023-03-10T22:25:29.239Z,90.11
2023-03-10T22:27:58.574Z,88.99
2023-03-10T22:30:31.237Z,88.92
2023-03-10T22:32:59.770Z,88.89
2023-03-10T22:35:32.334Z,87.57
2023-03-10T22:37:59.188Z,87.33
2023-03-10T22:40:33.750Z,87.21
2023-03-10T22:43:00.357Z,87.52
2023-03-10T22:45:31.814Z,87.97
2023-03-10T22:48:02.540Z,88.85
2023-03-10T22:50:31.790Z,88.13
2023-03-10T22:53:00.805Z,88.76
2023-03-10T22:55:30.318Z,88.63
2023-03-10T22:58:01.540Z,87.12
2023-03-10T23:00:30.430Z,89.16
2023-03-10T23:02:59.353Z,90.50
2023-03-10T23:05:32.038Z,89.86
2023-03-10T23:08:00.367Z,91.13
2023-03-10T23:10:36.050Z,91.05
2023-03-10T23:13:07.685Z,91.91
2023-03-10T23:15:37.395Z,92.36
2023-03-10T23:18:05.788Z,93.40
2023-03-10T23:20:34.476Z,92.77
2023-03-10T23:23:06.051Z,94.48
2023-03-10T23:25:39.776Z,93.49
2023-03-10T23:28:10.104Z,93.05
2023-03-10T23:30:43.190Z,93.99
2023-03-10T23:33:12.116Z,94.04
2023-03-10T23:35:45.802Z,93.97
2023-03-10T23:38:14.732Z,93.89
2023-03-10T23:40:45.932Z,93.84
2023-03-10T23:43:35.536Z,94.06
2023-03-10T23:46:37.171Z,94.76
2023-03-10T23:49:44.523Z,94.10
2023-03-10T23:52:35.683Z,95.46
2023-03-10T23:55:07.283Z,94.86
2023-03-10T23:57:37.056Z,94.13
